createdAt,value
2023-10-07T06:18:26.192Z,580.00
2023-10-07T06:19:26.123Z,536.00
2023-10-07T06:20:26.113Z,524.00
2023-10-07T06:21:26.103Z,520.00
2023-10-07T06:22:26.095Z,524.00
2023-10-07T06:23:26.296Z,560.00
2023-10-07T06:24:26.099Z,604.00
2023-10-07T06:25:26.055Z,632.00
2023-10-07T06:26:26.046Z,672.00
2023-10-07T06:27:26.037Z,704.00
2023-10-07T06:28:26.022Z,712.00
2023-10-07T06:29:26.010Z,728.00
2023-10-07T06:30:26.016Z,788.00
2023-10-07T06:31:26.072Z,788.00
2023-10-07T06:32:26.076Z,784.00
2023-10-07T06:33:25.966Z,768.00
2023-10-07T06:34:25.980Z,772.00
2023-10-07T06:35:25.947Z,816.00
2023-10-07T06:36:26.081Z,880.00
2023-10-07T06:37:25.920Z,960.00
2023-10-07T06:38:25.909Z,976.00
2023-10-07T06:39:25.897Z,852.00
2023-10-07T06:40:25.895Z,776.00
2023-10-07T06:41:25.885Z,708.00
2023-10-07T06:42:25.891Z,668.00
2023-10-07T06:43:25.850Z,640.00
2023-10-07T06:44:25.894Z,608.00
2023-10-07T06:45:25.829Z,564.00
2023-10-07T06:46:25.876Z,540.00
2023-10-07T06:47:25.828Z,544.00
2023-10-07T06:48:25.821Z,540.00
2023-10-07T06:49:25.839Z,520.00
2023-10-07T06:50:25.799Z,504.00
2023-10-07T06:51:25.760Z,520.00
2023-10-07T06:52:25.752Z,528.00
2023-10-07T06:53:25.754Z,528.00
2023-10-07T06:54:25.750Z,520.00
2023-10-07T06:55:25.726Z,524.00
2023-10-07T06:56:25.713Z,532.00
2023-10-07T06:57:25.695Z,528.00
2023-10-07T06:58:25.688Z,532.00
2023-10-07T06:59:25.669Z,540.00
2023-10-07T07:00:25.691Z,588.00
2023-10-07T07:01:25.657Z,636.00
2023-10-07T07:02:25.710Z,668.00
2023-10-07T07:03:25.677Z,728.00
2023-10-07T07:04:25.902Z,816.00
2023-10-07T07:05:25.604Z,964.00
2023-10-07T07:06:25.629Z,1124.00
2023-10-07T07:07:25.574Z,1300.00
2023-10-07T07:08:25.625Z,1388.00
2023-10-07T07:09:25.549Z,1340.00
2023-10-07T07:10:25.542Z,1228.00
2023-10-07T07:11:25.530Z,1088.00
2023-10-07T07:12:25.536Z,984.00
2023-10-07T07:13:25.519Z,888.00
2023-10-07T07:14:25.515Z,868.00
2023-10-07T07:15:25.481Z,948.00
2023-10-07T07:16:25.479Z,1060.00
2023-10-07T07:17:25.616Z,1092.00
2023-10-07T07:18:25.465Z,1100.00
2023-10-07T07:19:25.433Z,1144.00
2023-10-07T07:20:25.432Z,1232.00
2023-10-07T07:21:25.411Z,1340.00
2023-10-07T07:22:25.428Z,1496.00
2023-10-07T07:23:25.397Z,1628.00
2023-10-07T07:24:25.398Z,1660.00
2023-10-07T07:25:25.399Z,1664.00
2023-10-07T07:26:25.359Z,1680.00
2023-10-07T07:27:25.344Z,1820.00
2023-10-07T07:28:25.330Z,2064.00
2023-10-07T07:29:25.367Z,2276.00
2023-10-07T07:30:25.332Z,2264.00
2023-10-07T07:31:25.371Z,2064.00
2023-10-07T07:32:25.300Z,1892.00
2023-10-07T07:33:25.272Z,1972.00
2023-10-07T07:34:25.265Z,2452.00
2023-10-07T07:35:25.249Z,3132.00
2023-10-07T07:36:25.284Z,3680.00
2023-10-07T07:37:25.226Z,3796.00
2023-10-07T07:38:25.284Z,3580.00
2023-10-07T07:39:25.207Z,3288.00
2023-10-07T07:40:25.195Z,3080.00
2023-10-07T07:41:25.187Z,2972.00
2023-10-07T07:42:25.198Z,2920.00
2023-10-07T07:43:25.165Z,2912.00
2023-10-07T07:44:25.205Z,2860.00
2023-10-07T07:45:25.153Z,2800.00
2023-10-07T07:46:25.144Z,2692.00
2023-10-07T07:47:25.242Z,2560.00
2023-10-07T07:48:25.213Z,2400.00
2023-10-07T07:49:25.095Z,2228.00
2023-10-07T07:50:25.101Z,2128.00
2023-10-07T07:51:25.075Z,2156.00
2023-10-07T07:52:25.066Z,2224.00
2023-10-07T07:53:25.055Z,2252.00
2023-10-07T07:54:25.089Z,2180.00
2023-10-07T07:55:26.189Z,2060.00
2023-10-07T07:56:25.017Z,1940.00
2023-10-07T07:57:25.007Z,1856.00
2023-10-07T07:58:24.993Z,1828.00
2023-10-07T07:59:25.034Z,1836.00
2023-10-07T08:00:24.990Z,1864.00
2023-10-07T08:01:24.954Z,1932.00
2023-10-07T08:02:25.018Z,2040.00
2023-10-07T08:03:25.021Z,2116.00
2023-10-07T08:04:25.089Z,2112.00
2023-10-07T08:05:24.984Z,1996.00
2023-10-07T08:06:24.918Z,1804.00
2023-10-07T08:07:24.893Z,1676.00
2023-10-07T08:08:24.883Z,1584.00
2023-10-07T08:09:24.864Z,1512.00
2023-10-07T08:10:24.997Z,1484.00
2023-10-07T08:11:24.845Z,1508.00
2023-10-07T08:12:24.848Z,1572.00
2023-10-07T08:13:24.834Z,1680.00
2023-10-07T08:14:24.815Z,1808.00
2023-10-07T08:15:24.845Z,1928.00
2023-10-07T08:16:24.805Z,2060.00
2023-10-07T08:17:24.833Z,2124.00
2023-10-07T08:18:24.865Z,2180.00
2023-10-07T08:19:24.753Z,2300.00
2023-10-07T08:20:24.785Z,2396.00
2023-10-07T08:21:24.729Z,2340.00
2023-10-07T08:22:24.722Z,2428.00
2023-10-07T08:23:24.704Z,2564.00
2023-10-07T08:24:24.715Z,2780.00
2023-10-07T08:25:24.685Z,2864.00
2023-10-07T08:26:24.750Z,2700.00
2023-10-07T08:27:24.659Z,2616.00
2023-10-07T08:28:24.647Z,2588.00
2023-10-07T08:29:24.646Z,2636.00
2023-10-07T08:30:24.651Z,2720.00
2023-10-07T08:31:24.637Z,2732.00
2023-10-07T08:32:24.655Z,2928.00
2023-10-07T08:33:24.608Z,2704.00
2023-10-07T08:34:24.587Z,2544.00
2023-10-07T08:35:24.622Z,2688.00
2023-10-07T08:36:24.583Z,2784.00
2023-10-07T08:37:24.543Z,2584.00
2023-10-07T08:38:24.534Z,2072.00
2023-10-07T08:39:24.520Z,1992.00
2023-10-07T08:40:24.512Z,2364.00
2023-10-07T08:41:24.493Z,2664.00
2023-10-07T08:42:24.532Z,2960.00
2023-10-07T08:43:24.477Z,3272.00
2023-10-07T08:44:24.540Z,3684.00
2023-10-07T08:45:24.494Z,4160.00
2023-10-07T08:46:24.475Z,3852.00
2023-10-07T08:47:24.673Z,3436.00
2023-10-07T08:48:24.514Z,3428.00
2023-10-07T08:49:24.407Z,3632.00
2023-10-07T08:50:24.406Z,3588.00
2023-10-07T08:51:24.394Z,7456.00
2023-10-07T08:52:24.384Z,7864.00
2023-10-07T08:53:24.379Z,4164.00
2023-10-07T08:54:24.373Z,5600.00
2023-10-07T08:55:24.344Z,4056.00
2023-10-07T08:56:24.330Z,8344.00
2023-10-07T08:57:24.316Z,5740.00
2023-10-07T08:58:24.333Z,5956.00
2023-10-07T08:59:24.296Z,4928.00
2023-10-07T09:00:24.305Z,4476.00
2023-10-07T09:01:24.307Z,5164.00
2023-10-07T09:02:24.275Z,4336.00
2023-10-07T09:03:24.324Z,6356.00
2023-10-07T09:04:24.240Z,3676.00
2023-10-07T09:05:24.284Z,3416.00
2023-10-07T09:06:24.243Z,4024.00
2023-10-07T09:07:24.201Z,4424.00
2023-10-07T09:08:24.266Z,4340.00
2023-10-07T09:09:24.181Z,4096.00
2023-10-07T09:10:24.195Z,4400.00
2023-10-07T09:11:24.189Z,4504.00
2023-10-07T09:12:24.174Z,4560.00
2023-10-07T09:13:24.135Z,4816.00
2023-10-07T09:14:24.205Z,4784.00
2023-10-07T09:15:24.114Z,4692.00
2023-10-07T09:16:24.139Z,4548.00
2023-10-07T09:17:24.167Z,4484.00
2023-10-07T09:18:24.215Z,4244.00
2023-10-07T09:19:24.069Z,4304.00
2023-10-07T09:20:24.114Z,4496.00
2023-10-07T09:21:24.054Z,3488.00
2023-10-07T09:22:24.036Z,2976.00
2023-10-07T09:23:24.063Z,3740.00
2023-10-07T09:24:24.037Z,3748.00
2023-10-07T09:25:24.008Z,5664.00
2023-10-07T09:26:24.094Z,6276.00
2023-10-07T09:27:23.977Z,3168.00
2023-10-07T09:28:23.967Z,3800.00
2023-10-07T09:29:23.988Z,6764.00
2023-10-07T09:30:24.011Z,6760.00
2023-10-07T09:31:23.983Z,6764.00
2023-10-07T09:32:24.155Z,6712.00
2023-10-07T09:33:23.911Z,6656.00
2023-10-07T09:34:23.902Z,6696.00
2023-10-07T09:35:23.974Z,6704.00
2023-10-07T09:36:23.908Z,6668.00
2023-10-07T09:37:23.862Z,6624.00
2023-10-07T09:38:23.944Z,6600.00
2023-10-07T09:39:23.840Z,6664.00
2023-10-07T09:40:23.833Z,6764.00
2023-10-07T09:41:23.862Z,6700.00
2023-10-07T09:42:23.828Z,6684.00
2023-10-07T09:43:23.803Z,6624.00
2023-10-07T09:44:23.800Z,6612.00
2023-10-07T09:45:23.780Z,6756.00
2023-10-07T09:46:34.887Z,6536.00
2023-10-07T09:47:24.859Z,6736.00
2023-10-07T09:48:23.817Z,6592.00
2023-10-07T09:49:23.729Z,6640.00
2023-10-07T09:50:23.756Z,6536.00
2023-10-07T09:51:23.709Z,6668.00
2023-10-07T09:52:23.696Z,6688.00
2023-10-07T09:53:23.737Z,6552.00
2023-10-07T09:54:23.847Z,6696.00
2023-10-07T09:55:23.665Z,6520.00
2023-10-07T09:56:23.681Z,6708.00
2023-10-07T09:57:23.680Z,6680.00
2023-10-07T09:58:23.627Z,6808.00
2023-10-07T09:59:23.655Z,6676.00
2023-10-07T10:00:23.603Z,6780.00
2023-10-07T10:01:23.644Z,6788.00
2023-10-07T10:02:23.766Z,6584.00
2023-10-07T10:03:23.797Z,6660.00
2023-10-07T10:04:23.603Z,6560.00
2023-10-07T10:05:23.652Z,6492.00
2023-10-07T10:06:23.537Z,6564.00
2023-10-07T10:07:23.525Z,6560.00
2023-10-07T10:08:23.565Z,6560.00
2023-10-07T10:09:23.503Z,6660.00
2023-10-07T10:10:23.495Z,6676.00
2023-10-07T10:11:23.528Z,6712.00
2023-10-07T10:12:23.476Z,6824.00
2023-10-07T10:13:23.455Z,6812.00
2023-10-07T10:14:23.937Z,6792.00
2023-10-07T10:15:23.436Z,6832.00
2023-10-07T10:16:23.474Z,6600.00
2023-10-07T10:17:23.538Z,6080.00
2023-10-07T10:18:23.430Z,5700.00
2023-10-07T10:19:23.393Z,5520.00
2023-10-07T10:20:23.410Z,5368.00
2023-10-07T10:21:23.367Z,5020.00
2023-10-07T10:22:23.404Z,4976.00
2023-10-07T10:23:23.411Z,4624.00
2023-10-07T10:24:23.342Z,4320.00
2023-10-07T10:25:23.324Z,4464.00
2023-10-07T10:26:23.408Z,3836.00
2023-10-07T10:27:23.321Z,3844.00
2023-10-07T10:28:23.292Z,3720.00
2023-10-07T10:29:23.327Z,3696.00
2023-10-07T10:30:23.269Z,4748.00
2023-10-07T10:31:23.284Z,5020.00
2023-10-07T10:32:23.285Z,4816.00
2023-10-07T10:33:23.263Z,4700.00
2023-10-07T10:34:23.247Z,5236.00
2023-10-07T10:35:23.290Z,5128.00
2023-10-07T10:36:23.201Z,5644.00
2023-10-07T10:37:23.195Z,5480.00
2023-10-07T10:38:23.243Z,5812.00
2023-10-07T10:39:37.185Z,6108.00
2023-10-07T10:40:24.187Z,6156.00
2023-10-07T10:41:23.199Z,6160.00
2023-10-07T10:42:23.135Z,6072.00
2023-10-07T10:43:23.124Z,6084.00
2023-10-07T10:44:23.173Z,6072.00
2023-10-07T10:45:23.123Z,5992.00
2023-10-07T10:46:23.132Z,5988.00
2023-10-07T10:47:23.139Z,5988.00
2023-10-07T10:48:23.093Z,5964.00
2023-10-07T10:49:23.068Z,5904.00
2023-10-07T10:50:23.082Z,5848.00
2023-10-07T10:51:23.034Z,5892.00
2023-10-07T10:52:23.042Z,5864.00
2023-10-07T10:53:23.041Z,5816.00
2023-10-07T10:54:23.003Z,5840.00
2023-10-07T10:55:22.992Z,5804.00
2023-10-07T10:56:23.029Z,5748.00
2023-10-07T10:57:22.968Z,5792.00
2023-10-07T10:58:22.973Z,5760.00
2023-10-07T10:59:23.000Z,5664.00
2023-10-07T11:00:23.057Z,5720.00
2023-10-07T11:01:22.959Z,5684.00
2023-10-07T11:02:22.996Z,5716.00
2023-10-07T11:03:23.370Z,5664.00
2023-10-07T11:04:22.916Z,5632.00
2023-10-07T11:05:23.073Z,5636.00
2023-10-07T11:06:23.044Z,5652.00
2023-10-07T11:07:22.888Z,5600.00
2023-10-07T11:08:22.914Z,5588.00
2023-10-07T11:09:22.835Z,5652.00
2023-10-07T11:10:22.843Z,5620.00
2023-10-07T11:11:22.856Z,5576.00
2023-10-07T11:12:22.805Z,5604.00
2023-10-07T11:13:22.790Z,5596.00
2023-10-07T11:14:22.818Z,5580.00
2023-10-07T11:15:22.771Z,5592.00
2023-10-07T11:16:22.829Z,5580.00
2023-10-07T11:17:22.808Z,5580.00
2023-10-07T11:18:22.739Z,5592.00
2023-10-07T11:19:22.726Z,5556.00
2023-10-07T11:20:22.785Z,5560.00
2023-10-07T11:21:22.864Z,5512.00
2023-10-07T11:22:22.758Z,5532.00
2023-10-07T11:23:24.666Z,5524.00
2023-10-07T11:24:22.667Z,5552.00
2023-10-07T11:25:22.661Z,5568.00
2023-10-07T11:26:22.659Z,5600.00
2023-10-07T11:27:22.636Z,5584.00
2023-10-07T11:28:22.648Z,5584.00
2023-10-07T11:29:22.656Z,5564.00
2023-10-07T11:30:22.609Z,5528.00
2023-10-07T11:31:22.611Z,5496.00
2023-10-07T11:32:22.662Z,5448.00
2023-10-07T11:33:22.707Z,5420.00
2023-10-07T11:34:22.585Z,5424.00
2023-10-07T11:35:22.647Z,5408.00
2023-10-07T11:36:22.543Z,5376.00
2023-10-07T11:37:22.528Z,5340.00
2023-10-07T11:38:22.636Z,5340.00
2023-10-07T11:39:22.505Z,5312.00
2023-10-07T11:40:22.517Z,5272.00
2023-10-07T11:41:23.486Z,5164.00
2023-10-07T11:42:22.469Z,5204.00
2023-10-07T11:43:22.460Z,5172.00
2023-10-07T11:44:22.483Z,5204.00
2023-10-07T11:45:22.441Z,5228.00
2023-10-07T11:46:22.529Z,5180.00
2023-10-07T11:47:22.479Z,5164.00
2023-10-07T11:48:22.406Z,5132.00
2023-10-07T11:49:22.393Z,5136.00
2023-10-07T11:50:22.434Z,5124.00
2023-10-07T11:51:22.371Z,5128.00
2023-10-07T11:52:22.381Z,5100.00
2023-10-07T11:53:22.368Z,5028.00
2023-10-07T11:54:22.363Z,5032.00
2023-10-07T11:55:22.330Z,4988.00
2023-10-07T11:56:22.353Z,4904.00
2023-10-07T11:57:22.304Z,4932.00
2023-10-07T11:58:22.319Z,4916.00
2023-10-07T11:59:22.320Z,4868.00
2023-10-07T12:00:22.274Z,4932.00
2023-10-07T12:01:22.298Z,4924.00
2023-10-07T12:02:22.296Z,4892.00
2023-10-07T12:03:22.357Z,4912.00
2023-10-07T12:04:22.301Z,4836.00
2023-10-07T12:05:22.286Z,4848.00
2023-10-07T12:06:22.207Z,4808.00
2023-10-07T12:07:22.206Z,4820.00
2023-10-07T12:08:22.216Z,4860.00
2023-10-07T12:09:22.173Z,4888.00
2023-10-07T12:10:22.198Z,4880.00
2023-10-07T12:11:22.185Z,4776.00
2023-10-07T12:12:22.185Z,4800.00
2023-10-07T12:13:23.310Z,4828.00
2023-10-07T12:14:22.143Z,4820.00
2023-10-07T12:15:22.126Z,4796.00
2023-10-07T12:16:22.133Z,4756.00
2023-10-07T12:17:22.133Z,4784.00
2023-10-07T12:18:22.091Z,4772.00
2023-10-07T12:19:22.063Z,4728.00
2023-10-07T12:20:22.112Z,4648.00
2023-10-07T12:21:22.056Z,4628.00
2023-10-07T12:22:22.030Z,4608.00
2023-10-07T12:23:22.074Z,4632.00
2023-10-07T12:24:22.006Z,4540.00
2023-10-07T12:25:22.003Z,4620.00
2023-10-07T12:26:22.045Z,4628.00
2023-10-07T12:27:21.992Z,4616.00
2023-10-07T12:28:21.973Z,4592.00
2023-10-07T12:29:21.991Z,4596.00
2023-10-07T12:30:21.943Z,4592.00
2023-10-07T12:31:21.960Z,4560.00
2023-10-07T12:32:21.995Z,4536.00
2023-10-07T12:33:35.111Z,4492.00
2023-10-07T12:34:22.895Z,4400.00
2023-10-07T12:35:21.934Z,4384.00
2023-10-07T12:36:21.872Z,4420.00
2023-10-07T12:37:21.878Z,4432.00
2023-10-07T12:38:21.876Z,4372.00
2023-10-07T12:39:21.847Z,4308.00
2023-10-07T12:40:21.861Z,4296.00
2023-10-07T12:41:21.855Z,4356.00
2023-10-07T12:42:21.843Z,4364.00
2023-10-07T12:43:21.802Z,4360.00
2023-10-07T12:44:21.823Z,4308.00
2023-10-07T12:45:21.782Z,4080.00
2023-10-07T12:46:21.779Z,4264.00
2023-10-07T12:47:21.783Z,4480.00
2023-10-07T12:48:21.747Z,4228.00
2023-10-07T12:49:21.736Z,4256.00
2023-10-07T12:50:21.858Z,4252.00
2023-10-07T12:51:21.711Z,4420.00
2023-10-07T12:52:21.719Z,4464.00
2023-10-07T12:53:21.735Z,4280.00
2023-10-07T12:54:21.681Z,4192.00
2023-10-07T12:55:21.665Z,4260.00
2023-10-07T12:56:21.699Z,4036.00
2023-10-07T12:57:21.664Z,4312.00
2023-10-07T12:58:21.647Z,4224.00
2023-10-07T12:59:21.651Z,4288.00
2023-10-07T13:00:21.624Z,4320.00
2023-10-07T13:01:21.781Z,4120.00
2023-10-07T13:02:21.686Z,4060.00
2023-10-07T13:03:21.706Z,4256.00
2023-10-07T13:04:21.614Z,4000.00
2023-10-07T13:05:21.602Z,3852.00
2023-10-07T13:06:21.542Z,4036.00
2023-10-07T13:07:21.548Z,4016.00
2023-10-07T13:08:21.613Z,3820.00
2023-10-07T13:09:21.591Z,3600.00
2023-10-07T13:10:21.506Z,3728.00
2023-10-07T13:11:21.531Z,3972.00
2023-10-07T13:12:21.493Z,4020.00
2023-10-07T13:13:21.471Z,3880.00
2023-10-07T13:14:21.518Z,3920.00
2023-10-07T13:15:21.447Z,3820.00
2023-10-07T13:16:21.433Z,3588.00
2023-10-07T13:17:22.069Z,3144.00
2023-10-07T13:18:21.438Z,3420.00
2023-10-07T13:19:21.421Z,3432.00
2023-10-07T13:20:21.516Z,3148.00
2023-10-07T13:21:21.406Z,3372.00
2023-10-07T13:22:21.393Z,3904.00
2023-10-07T13:23:21.406Z,3600.00
2023-10-07T13:24:21.345Z,3284.00
2023-10-07T13:25:21.410Z,3336.00
2023-10-07T13:26:21.386Z,3828.00
2023-10-07T13:27:21.328Z,3456.00
2023-10-07T13:28:21.338Z,3692.00
2023-10-07T13:29:21.362Z,3488.00
2023-10-07T13:30:21.306Z,3472.00
2023-10-07T13:31:21.312Z,3824.00
2023-10-07T13:32:21.332Z,3924.00
2023-10-07T13:33:21.318Z,3948.00
2023-10-07T13:34:21.242Z,4004.00
2023-10-07T13:35:21.300Z,4036.00
2023-10-07T13:36:21.231Z,2292.00
2023-10-07T13:37:21.206Z,2108.00
2023-10-07T13:38:21.317Z,1948.00
2023-10-07T13:39:21.242Z,2240.00
2023-10-07T13:40:21.181Z,2992.00
2023-10-07T13:41:21.204Z,3424.00
2023-10-07T13:42:21.148Z,2088.00
2023-10-07T13:43:21.244Z,2500.00
2023-10-07T13:44:21.254Z,3604.00
2023-10-07T13:45:21.161Z,2596.00
2023-10-07T13:46:21.194Z,3672.00
2023-10-07T13:47:21.306Z,3636.00
2023-10-07T13:48:21.212Z,3584.00
2023-10-07T13:49:21.071Z,3468.00
2023-10-07T13:50:21.104Z,3392.00
2023-10-07T13:51:21.053Z,3300.00
2023-10-07T13:52:21.037Z,3120.00
2023-10-07T13:53:21.101Z,2860.00
2023-10-07T13:54:21.014Z,3268.00
2023-10-07T13:55:21.021Z,3188.00
2023-10-07T13:56:21.088Z,3204.00
2023-10-07T13:57:21.156Z,3180.00
2023-10-07T13:58:20.984Z,3108.00
2023-10-07T13:59:21.072Z,3124.00
2023-10-07T14:00:21.016Z,2036.00
2023-10-07T14:01:21.010Z,1472.00
2023-10-07T14:02:21.507Z,1424.00
2023-10-07T14:03:21.245Z,1420.00
2023-10-07T14:04:20.959Z,1468.00
2023-10-07T14:05:20.952Z,1796.00
2023-10-07T14:06:20.893Z,2384.00
2023-10-07T14:07:20.892Z,2596.00
2023-10-07T14:08:21.043Z,2512.00
2023-10-07T14:09:20.923Z,2340.00
2023-10-07T14:10:20.940Z,2380.00
2023-10-07T14:11:20.927Z,2220.00
2023-10-07T14:12:20.820Z,2164.00
2023-10-07T14:13:20.841Z,2072.00
2023-10-07T14:14:20.916Z,1928.00
2023-10-07T14:15:20.827Z,1828.00
2023-10-07T14:16:20.870Z,1772.00
2023-10-07T14:17:20.888Z,1796.00
2023-10-07T14:18:20.848Z,1860.00
2023-10-07T14:19:20.741Z,1736.00
2023-10-07T14:20:20.771Z,1616.00
2023-10-07T14:21:20.717Z,1596.00
2023-10-07T14:22:20.708Z,1588.00
2023-10-07T14:23:20.815Z,1836.00
2023-10-07T14:24:20.684Z,2096.00
2023-10-07T14:25:20.683Z,2168.00
2023-10-07T14:26:20.800Z,2044.00
2023-10-07T14:27:20.650Z,1584.00
2023-10-07T14:28:20.659Z,1696.00
2023-10-07T14:29:20.695Z,1852.00
2023-10-07T14:30:20.688Z,1876.00
2023-10-07T14:31:20.754Z,1500.00
2023-10-07T14:32:20.637Z,1556.00
2023-10-07T14:33:20.651Z,1404.00
2023-10-07T14:34:20.606Z,1460.00
2023-10-07T14:35:20.611Z,1556.00
2023-10-07T14:36:20.548Z,1776.00
2023-10-07T14:37:20.544Z,1776.00
2023-10-07T14:38:20.564Z,1740.00
2023-10-07T14:39:26.654Z,1580.00
2023-10-07T14:40:21.551Z,1540.00
2023-10-07T14:41:20.605Z,1560.00
2023-10-07T14:42:20.490Z,1480.00
2023-10-07T14:43:20.515Z,1404.00
2023-10-07T14:44:20.479Z,1360.00
2023-10-07T14:45:20.482Z,1340.00
2023-10-07T14:46:20.459Z,1300.00
2023-10-07T14:47:20.442Z,1248.00
2023-10-07T14:48:20.534Z,1228.00
2023-10-07T14:49:20.416Z,1192.00
2023-10-07T14:50:20.482Z,1152.00
2023-10-07T14:51:20.394Z,1124.00
2023-10-07T14:52:20.376Z,1088.00
2023-10-07T14:53:20.400Z,1052.00
2023-10-07T14:54:20.356Z,1016.00
2023-10-07T14:55:20.343Z,1000.00
2023-10-07T14:56:20.340Z,984.00
2023-10-07T14:57:20.344Z,984.00
2023-10-07T14:58:20.331Z,980.00
2023-10-07T14:59:20.352Z,972.00
2023-10-07T15:00:20.284Z,964.00
2023-10-07T15:01:20.344Z,960.00
2023-10-07T15:02:20.373Z,972.00
2023-10-07T15:03:20.428Z,1000.00
2023-10-07T15:04:20.328Z,988.00
2023-10-07T15:05:20.257Z,964.00
2023-10-07T15:06:20.262Z,1020.00
2023-10-07T15:07:20.203Z,1088.00
2023-10-07T15:08:20.356Z,1112.00
2023-10-07T15:09:20.241Z,1088.00
2023-10-07T15:10:20.173Z,1032.00
2023-10-07T15:11:20.192Z,952.00
2023-10-07T15:12:20.155Z,936.00
2023-10-07T15:13:20.163Z,928.00
2023-10-07T15:14:20.206Z,904.00
2023-10-07T15:15:20.117Z,864.00
2023-10-07T15:16:20.141Z,836.00
2023-10-07T15:17:20.192Z,808.00
2023-10-07T15:18:20.133Z,760.00
2023-10-07T15:19:20.070Z,728.00
2023-10-07T15:20:20.110Z,728.00
2023-10-07T15:21:20.049Z,720.00
2023-10-07T15:22:20.063Z,728.00
2023-10-07T15:23:20.075Z,736.00
2023-10-07T15:24:20.016Z,740.00
2023-10-07T15:25:20.004Z,744.00
2023-10-07T15:26:20.141Z,732.00
2023-10-07T15:27:19.987Z,724.00
2023-10-07T15:28:19.989Z,724.00
2023-10-07T15:29:20.026Z,724.00
2023-10-07T15:30:19.949Z,732.00
2023-10-07T15:31:19.953Z,748.00
2023-10-07T15:32:19.942Z,776.00
2023-10-07T15:33:19.979Z,816.00
2023-10-07T15:34:19.906Z,832.00
2023-10-07T15:35:19.926Z,836.00
2023-10-07T15:36:19.886Z,840.00
2023-10-07T15:37:19.870Z,856.00
2023-10-07T15:38:19.947Z,868.00
2023-10-07T15:39:19.861Z,872.00
2023-10-07T15:40:19.851Z,868.00
2023-10-07T15:41:19.907Z,860.00
2023-10-07T15:42:19.818Z,844.00
2023-10-07T15:43:19.822Z,828.00
2023-10-07T15:44:19.835Z,808.00
2023-10-07T15:45:19.781Z,788.00
2023-10-07T15:46:19.836Z,764.00
2023-10-07T15:47:19.841Z,736.00
2023-10-07T15:48:19.771Z,716.00
2023-10-07T15:49:19.768Z,688.00
2023-10-07T15:50:19.796Z,668.00
2023-10-07T15:51:19.717Z,640.00
2023-10-07T15:52:19.705Z,620.00
2023-10-07T15:53:19.745Z,612.00
2023-10-07T15:54:19.743Z,600.00
2023-10-07T15:55:19.670Z,584.00
2023-10-07T15:56:19.901Z,572.00
2023-10-07T15:57:19.665Z,572.00
2023-10-07T15:58:19.637Z,580.00
2023-10-07T15:59:19.721Z,596.00
2023-10-07T16:00:19.704Z,620.00
2023-10-07T16:01:19.697Z,628.00
2023-10-07T16:02:19.704Z,636.00
2023-10-07T16:03:19.709Z,636.00
2023-10-07T16:04:19.713Z,644.00
2023-10-07T16:05:19.683Z,640.00
2023-10-07T16:06:19.553Z,652.00
2023-10-07T16:07:19.541Z,648.00
2023-10-07T16:08:19.567Z,648.00
2023-10-07T16:09:19.536Z,632.00
2023-10-07T16:10:19.534Z,608.00
2023-10-07T16:11:19.584Z,576.00
2023-10-07T16:12:19.479Z,536.00
2023-10-07T16:13:19.468Z,504.00
2023-10-07T16:14:19.524Z,468.00
2023-10-07T16:15:19.454Z,444.00
2023-10-07T16:16:19.460Z,428.00
2023-10-07T16:17:19.461Z,412.00
2023-10-07T16:18:19.462Z,392.00
2023-10-07T16:19:19.482Z,380.00
2023-10-07T16:20:19.609Z,368.00
2023-10-07T16:21:19.603Z,356.00
2023-10-07T16:22:19.371Z,340.00
2023-10-07T16:23:19.468Z,332.00
2023-10-07T16:24:19.377Z,312.00
2023-10-07T16:25:19.335Z,296.00
2023-10-07T16:26:19.376Z,280.00
2023-10-07T16:27:19.317Z,276.00
2023-10-07T16:28:19.308Z,272.00
2023-10-07T16:29:19.352Z,264.00
2023-10-07T16:30:19.297Z,248.00
2023-10-07T16:31:19.311Z,228.00
2023-10-07T16:32:19.284Z,216.00
2023-10-07T16:33:19.258Z,200.00
2023-10-07T16:34:19.251Z,188.00
2023-10-07T16:35:19.249Z,180.00
2023-10-07T16:36:19.219Z,180.00
2023-10-07T16:37:19.198Z,172.00
2023-10-07T16:38:19.258Z,164.00
2023-10-07T16:39:19.214Z,156.00
2023-10-07T16:40:19.164Z,148.00
2023-10-07T16:41:19.182Z,136.00
2023-10-07T16:42:19.190Z,128.00
2023-10-07T16:43:19.189Z,124.00
2023-10-07T16:44:19.232Z,116.00
2023-10-07T16:45:19.223Z,112.00
2023-10-07T16:46:19.138Z,104.00
2023-10-07T16:47:19.134Z,96.00
2023-10-07T16:48:19.094Z,92.00
2023-10-07T16:49:19.090Z,84.00
2023-10-07T16:50:19.062Z,76.00
2023-10-07T16:51:19.042Z,76.00
2023-10-07T16:52:19.033Z,68.00
2023-10-07T16:53:19.078Z,64.00
2023-10-07T16:54:19.045Z,60.00
2023-10-07T16:55:19.017Z,56.00
2023-10-07T16:56:19.021Z,48.00
2023-10-07T16:57:19.698Z,48.00
2023-10-07T16:58:18.991Z,44.00
2023-10-07T16:59:18.998Z,40.00
2023-10-07T17:00:18.954Z,36.00
2023-10-07T17:01:18.990Z,28.00
2023-10-07T17:02:18.954Z,28.00
2023-10-07T17:03:18.978Z,24.00
2023-10-07T17:04:19.038Z,20.00
2023-10-07T17:05:18.904Z,16.00
2023-10-07T17:06:18.900Z,16.00
2023-10-07T17:07:18.860Z,16.00
2023-10-07T17:08:18.865Z,12.00
2023-10-07T17:09:18.859Z,12.00
2023-10-07T17:10:18.829Z,8.00
2023-10-07T17:11:19.088Z,4.00
2023-10-07T17:12:18.803Z,8.00
2023-10-07T17:13:18.797Z,8.00
2023-10-07T17:14:18.843Z,4.00
2023-10-07T17:15:18.768Z,8.00
2023-10-07T17:16:18.843Z,4.00
2023-10-07T17:17:18.910Z,4.00
2023-10-07T17:18:18.756Z,0.00
2023-10-07T17:19:18.732Z,4.00
2023-10-07T17:20:18.741Z,4.00
2023-10-07T17:21:18.695Z,0.00
2023-10-07T17:22:18.698Z,0.00
2023-10-07T17:23:18.716Z,0.00
2023-10-07T17:24:18.676Z,0.00
2023-10-07T17:25:18.649Z,0.00
2023-10-07T17:26:18.680Z,0.00
2023-10-07T17:27:18.646Z,0.00
2023-10-07T17:28:18.685Z,0.00
2023-10-07T17:29:18.650Z,0.00
2023-10-07T17:30:18.626Z,0.00
2023-10-07T17:31:18.638Z,0.00
2023-10-07T17:32:18.602Z,0.00
2023-10-07T17:33:18.571Z,0.00
2023-10-07T17:34:18.577Z,0.00
2023-10-07T17:35:18.601Z,0.00
2023-10-07T17:36:18.530Z,0.00
2023-10-07T17:37:18.521Z,0.00
2023-10-07T17:38:18.573Z,0.00
2023-10-07T17:39:18.509Z,0.00
2023-10-07T17:40:18.484Z,0.00
2023-10-07T17:41:18.577Z,0.00
2023-10-07T17:42:18.476Z,0.00
2023-10-07T17:43:18.451Z,0.00
2023-10-07T17:44:18.473Z,0.00
2023-10-07T17:45:18.424Z,0.00
2023-10-07T17:46:18.458Z,0.00
2023-10-07T17:47:18.435Z,0.00
2023-10-07T17:48:18.476Z,0.00
2023-10-07T17:49:18.405Z,0.00
2023-10-07T17:50:18.441Z,0.00
2023-10-07T17:51:18.353Z,0.00
2023-10-07T17:52:18.350Z,0.00
2023-10-07T17:53:18.436Z,0.00
2023-10-07T17:54:18.339Z,0.00
2023-10-07T17:55:18.312Z,0.00
2023-10-07T17:56:18.319Z,0.00
2023-10-07T17:57:18.288Z,0.00
2023-10-07T17:58:18.277Z,0.00
2023-10-07T17:59:18.355Z,0.00
2023-10-07T18:00:18.262Z,0.00
2023-10-07T18:01:18.257Z,0.00
2023-10-07T18:02:18.372Z,0.00
2023-10-07T18:03:18.411Z,0.00
2023-10-07T18:04:18.224Z,0.00
2023-10-07T18:05:18.258Z,0.00
2023-10-07T18:06:18.185Z,0.00
2023-10-07T18:07:18.172Z,0.00
2023-10-07T18:08:18.191Z,0.00
2023-10-07T18:09:18.157Z,0.00
2023-10-07T18:10:18.151Z,0.00
2023-10-07T18:11:18.178Z,0.00
2023-10-07T18:12:18.123Z,0.00
2023-10-07T18:13:18.100Z,0.00
2023-10-07T18:14:18.123Z,0.00
2023-10-07T18:15:18.090Z,0.00
2023-10-07T18:16:18.089Z,0.00
2023-10-07T18:17:18.085Z,0.00
2023-10-07T18:18:18.105Z,0.00
2023-10-07T18:19:18.350Z,0.00
2023-10-07T18:20:18.196Z,0.00
2023-10-07T18:21:18.015Z,0.00
2023-10-07T18:22:18.000Z,0.00
2023-10-07T18:23:18.034Z,0.00
2023-10-07T18:24:17.978Z,0.00
2023-10-07T18:25:17.980Z,0.00
2023-10-07T18:26:18.048Z,0.00
2023-10-07T18:27:17.944Z,0.00
2023-10-07T18:28:17.937Z,0.00
2023-10-07T18:29:17.998Z,0.00
2023-10-07T18:30:18.037Z,0.00
2023-10-07T18:31:17.969Z,0.00
2023-10-07T18:32:17.937Z,0.00
2023-10-07T18:33:17.896Z,0.00
2023-10-07T18:34:17.896Z,0.00
2023-10-07T18:35:17.898Z,0.00
2023-10-07T18:36:17.847Z,0.00
2023-10-07T18:37:17.833Z,0.00
2023-10-07T18:38:17.833Z,0.00